| time (UTC) | temp F | wind direction | speed knots | gust knots | rain 1hr in | rain 24hr in | rain mn in | humidity % | barometer mb |
| 20260504215744 | 78 | 160 | 0.0 | 0.0 | 0.00 | 0.00 | 0.00 | 42 | 1012.6 |
| 20260504215240 | 78 | 196 | 0.0 | 2.6 | 0.00 | 0.00 | 0.00 | 41 | 1012.6 |
| 20260504214736 | 79 | 90 | 0.9 | 3.5 | 0.00 | 0.00 | 0.00 | 38 | 1012.8 |
| 20260504214233 | 80 | 180 | 0.9 | 2.6 | 0.00 | 0.00 | 0.00 | 39 | 1012.7 |
| 20260504213730 | 79 | 169 | 3.5 | 4.3 | 0.00 | 0.00 | 0.00 | 40 | 1012.8 |
| 20260504213226 | 79 | 195 | 0.0 | 3.5 | 0.00 | 0.00 | 0.00 | 41 | 1012.7 |
| 20260504212723 | 80 | 216 | 0.0 | 2.6 | 0.00 | 0.00 | 0.00 | 38 | 1012.8 |
| 20260504212219 | 82 | 180 | 0.0 | 1.7 | 0.00 | 0.00 | 0.00 | 37 | 1012.7 |
| 20260504211711 | 81 | 195 | 0.0 | 1.7 | 0.00 | 0.00 | 0.00 | 36 | 1012.8 |
| 20260504211207 | 81 | 165 | 0.0 | 1.7 | 0.00 | 0.00 | 0.00 | 36 | 1012.8 |
| 20260504210705 | 80 | 175 | 2.6 | 4.3 | 0.00 | 0.00 | 0.00 | 36 | 1013.0 |
| 20260504210201 | 81 | 8 | 0.0 | 3.5 | 0.00 | 0.00 | 0.00 | 37 | 1012.9 |
| 20260504205659 | 80 | 115 | 1.7 | 2.6 | 0.00 | 0.00 | 0.00 | 35 | 1013.0 |
| 20260504205156 | 81 | 354 | 0.0 | 1.7 | 0.00 | 0.00 | 0.00 | 38 | 1013.0 |
| 20260504204654 | 82 | 73 | 0.0 | 2.6 | 0.00 | 0.00 | 0.00 | 35 | 1012.9 |
| 20260504204153 | 82 | 127 | 1.7 | 2.6 | 0.00 | 0.00 | 0.00 | 36 | 1012.8 |
| 20260504203651 | 82 | 180 | 1.7 | 2.6 | 0.00 | 0.00 | 0.00 | 36 | 1013.0 |
| 20260504203149 | 82 | 90 | 0.0 | 2.6 | 0.00 | 0.00 | 0.00 | 37 | 1013.0 |
| 20260504202643 | 82 | 270 | 0.0 | 3.5 | 0.00 | 0.00 | 0.00 | 36 | 1013.0 |
| 20260504202140 | 82 | 74 | 1.7 | 3.5 | 0.00 | 0.00 | 0.00 | 36 | 1013.3 |
| 20260504201637 | 81 | 159 | 0.0 | 3.5 | 0.00 | 0.00 | 0.00 | 36 | 1013.2 |
| 20260504201135 | 82 | 168 | 0.9 | 2.6 | 0.00 | 0.00 | 0.00 | 38 | 1013.3 |
| 20260504200632 | 82 | 180 | 0.0 | 2.6 | 0.00 | 0.00 | 0.00 | 37 | 1013.3 |
| 20260504200128 | 82 | 231 | 0.0 | 2.6 | 0.00 | 0.00 | 0.00 | 36 | 1013.7 |
| 20260504195624 | 82 | 196 | 1.7 | 5.2 | 0.00 | 0.00 | 0.00 | 38 | 1013.5 |
| 20260504195121 | 82 | 124 | 1.7 | 4.3 | 0.00 | 0.00 | 0.00 | 36 | 1013.8 |
| 20260504194618 | 81 | 349 | 1.7 | 3.5 | 0.00 | 0.00 | 0.00 | 38 | 1013.7 |
| 20260504194113 | 82 | 99 | 0.9 | 3.5 | 0.00 | 0.00 | 0.00 | 37 | 1013.9 |
| 20260504193610 | 82 | 85 | 0.0 | 4.3 | 0.00 | 0.00 | 0.00 | 39 | 1014.0 |
| 20260504193109 | 81 | 135 | 1.7 | 5.2 | 0.00 | 0.00 | 0.00 | 40 | 1013.7 |
| 20260504192606 | 81 | 270 | 0.0 | 1.7 | 0.00 | 0.00 | 0.00 | 38 | 1014.1 |
| 20260504192104 | 81 | 90 | 0.9 | 1.7 | 0.00 | 0.00 | 0.00 | 38 | 1014.3 |
| 20260504191602 | 82 | 144 | 1.7 | 3.5 | 0.00 | 0.00 | 0.00 | 39 | 1014.0 |
| 20260504191058 | 81 | 341 | 1.7 | 2.6 | 0.00 | 0.00 | 0.00 | 39 | 1014.4 |
| 20260504190554 | 83 | 140 | 0.0 | 3.5 | 0.00 | 0.00 | 0.00 | 36 | 1014.6 |
| 20260504190050 | 82 | 76 | 2.6 | 2.6 | 0.00 | 0.00 | 0.00 | 38 | 1014.4 |
| 20260504185548 | 82 | 0 | 1.7 | 2.6 | 0.00 | 0.00 | 0.00 | 35 | 1014.6 |
| 20260504185044 | 82 | 95 | 0.0 | 3.5 | 0.00 | 0.00 | 0.00 | 37 | 1014.7 |
| 20260504184539 | 80 | 75 | 1.7 | 2.6 | 0.00 | 0.00 | 0.00 | 40 | 1014.6 |
| 20260504184035 | 81 | 105 | 0.0 | 2.6 | 0.00 | 0.00 | 0.00 | 40 | 1014.7 |
| 20260504183532 | 79 | 348 | 3.5 | 3.5 | 0.00 | 0.00 | 0.00 | 40 | 1014.6 |
| 20260504183031 | 80 | 168 | 3.5 | 3.5 | 0.00 | 0.00 | 0.00 | 37 | 1014.8 |
| 20260504182527 | 78 | 90 | 3.5 | 4.3 | 0.00 | 0.00 | 0.00 | 43 | 1014.8 |
| 20260504182024 | 78 | 59 | 3.5 | 3.5 | 0.00 | 0.00 | 0.00 | 38 | 1015.1 |
| 20260504181521 | 79 | 79 | 2.6 | 3.5 | 0.00 | 0.00 | 0.00 | 36 | 1015.0 |
| 20260504181020 | 81 | 145 | 0.0 | 2.6 | 0.00 | 0.00 | 0.00 | 36 | 1015.0 |
| 20260504180518 | 81 | 161 | 1.7 | 3.5 | 0.00 | 0.00 | 0.00 | 39 | 1015.1 |
| 20260504180017 | 80 | 102 | 0.0 | 2.6 | 0.00 | 0.00 | 0.00 | 42 | 1015.3 |
| 20260504175513 | 80 | 50 | 0.0 | 2.6 | 0.00 | 0.00 | 0.00 | 42 | 1015.3 |
| 20260504175011 | 79 | 77 | 1.7 | 2.6 | 0.00 | 0.00 | 0.00 | 39 | 1015.3 |
| 20260504174508 | 78 | 133 | 2.6 | 2.6 | 0.00 | 0.00 | 0.00 | 39 | 1015.3 |
| 20260504174005 | 80 | 78 | 1.7 | 3.5 | 0.00 | 0.00 | 0.00 | 41 | 1015.2 |
| 20260504173502 | 78 | 353 | 0.9 | 4.3 | 0.00 | 0.00 | 0.00 | 43 | 1015.3 |
| 20260504172959 | 81 | 251 | 0.0 | 4.3 | 0.00 | 0.00 | 0.00 | 43 | 1015.5 |
| 20260504172455 | 79 | 117 | 0.0 | 2.6 | 0.00 | 0.00 | 0.00 | 43 | 1015.5 |
| 20260504171952 | 76 | 109 | 0.9 | 4.3 | 0.00 | 0.00 | 0.00 | 41 | 1015.8 |
| 20260504171449 | 76 | 97 | 2.6 | 2.6 | 0.00 | 0.00 | 0.00 | 44 | 1015.6 |
| 20260504170946 | 77 | 86 | 2.6 | 4.3 | 0.00 | 0.00 | 0.00 | 42 | 1015.8 |
| 20260504170442 | 78 | 120 | 0.0 | 2.6 | 0.00 | 0.00 | 0.00 | 42 | 1015.9 |
| 20260504160402 | 75 | 152 | 1.7 | 2.6 | 0.00 | 0.00 | 0.00 | 46 | 1016.7 |
| 20260504150826 | 72 | 270 | 1.7 | 2.6 | 0.00 | 0.00 | 0.00 | 63 | 1017.0 |
| 20260504150322 | 71 | 117 | 0.0 | 2.6 | 0.00 | 0.00 | 0.00 | 62 | 1017.0 |
| 20260504141252 | 66 | 90 | 0.9 | 1.7 | 0.00 | 0.00 | 0.00 | 71 | 1017.3 |
| 20260504140749 | 65 | 105 | 0.0 | 0.9 | 0.00 | 0.00 | 0.00 | 74 | 1017.6 |
| 20260504140244 | 63 | 139 | 1.7 | 2.6 | 0.00 | 0.00 | 0.00 | 74 | 1017.5 |
| 20260504130713 | 55 | 21 | 0.0 | 1.7 | 0.00 | 0.00 | 0.00 | 90 | 1017.6 |
| 20260504130209 | 55 | 96 | 1.7 | 1.7 | 0.00 | 0.00 | 0.00 | 91 | 1017.6 |
| 20260504120133 | 48 | 262 | 0.0 | 0.0 | 0.00 | 0.00 | 0.00 | 99 | 1017.3 |
| 20260504110600 | 44 | 157 | 0.0 | 0.0 | 0.00 | 0.00 | 0.00 | 99 | 1016.7 |
| 20260504100522 | 44 | 157 | 0.0 | 0.0 | 0.00 | 0.00 | 0.00 | 99 | 1016.5 |
| 20260504081916 | 46 | 145 | 0.0 | 0.0 | 0.00 | 0.00 | 0.00 | 99 | 1016.6 |
| 20260504081413 | 45 | 145 | 0.0 | 0.0 | 0.00 | 0.00 | 0.00 | 99 | 1016.7 |
| 20260504080908 | 45 | 106 | 0.0 | 0.0 | 0.00 | 0.00 | 0.00 | 99 | 1016.8 |
| 20260504080406 | 46 | 106 | 0.0 | 0.0 | 0.00 | 0.00 | 0.00 | 99 | 1016.8 |
| 20260504070333 | 47 | 188 | 0.0 | 0.0 | 0.00 | 0.00 | 0.00 | 99 | 1017.1 |
| 20260504050721 | 48 | 29 | 0.0 | 0.9 | 0.00 | 0.00 | 0.00 | 96 | 1017.5 |
| 20260504050212 | 48 | 106 | 0.0 | 0.0 | 0.00 | 0.00 | 0.00 | 96 | 1017.5 |
| 20260504045709 | 49 | 106 | 0.0 | 0.0 | 0.00 | 0.00 | 0.00 | 96 | 1017.2 |
| 20260504045204 | 49 | 106 | 0.0 | 0.0 | 0.00 | 0.00 | 0.00 | 96 | 1017.7 |
| 20260504044702 | 49 | 106 | 0.0 | 0.0 | 0.00 | 0.00 | 0.00 | 96 | 1017.6 |
| 20260504044159 | 49 | 166 | 0.0 | 0.9 | 0.00 | 0.00 | 0.00 | 95 | 1017.5 |
| 20260504043656 | 50 | 254 | 0.0 | 0.0 | 0.00 | 0.00 | 0.00 | 95 | 1017.6 |
| 20260504043153 | 50 | 254 | 0.0 | 0.0 | 0.00 | 0.00 | 0.00 | 95 | 1017.7 |
| 20260504042650 | 50 | 254 | 0.0 | 0.0 | 0.00 | 0.00 | 0.00 | 95 | 1017.9 |
| 20260504042146 | 50 | 254 | 0.0 | 0.0 | 0.00 | 0.00 | 0.00 | 94 | 1017.9 |
| 20260504041642 | 50 | 254 | 0.0 | 0.0 | 0.00 | 0.00 | 0.00 | 94 | 1018.0 |
| 20260504041138 | 50 | 254 | 0.0 | 0.0 | 0.00 | 0.00 | 0.00 | 95 | 1018.0 |
| 20260504040636 | 50 | 254 | 0.0 | 0.0 | 0.00 | 0.00 | 0.00 | 94 | 1018.1 |
| 20260504040133 | 51 | 254 | 0.0 | 1.7 | 0.00 | 0.00 | 0.00 | 95 | 1018.0 |
| 20260504035629 | 50 | 246 | 0.0 | 0.0 | 0.00 | 0.00 | 0.00 | 94 | 1017.8 |
| 20260504035126 | 51 | 246 | 0.0 | 0.0 | 0.00 | 0.00 | 0.00 | 94 | 1017.6 |
| 20260504034624 | 51 | 246 | 0.0 | 0.9 | 0.00 | 0.00 | 0.00 | 94 | 1017.9 |
| 20260504034121 | 51 | 254 | 0.0 | 0.9 | 0.00 | 0.00 | 0.00 | 93 | 1017.9 |
| 20260504033618 | 51 | 254 | 0.0 | 0.0 | 0.00 | 0.00 | 0.00 | 93 | 1018.0 |
| 20260504033116 | 51 | 262 | 0.0 | 0.0 | 0.00 | 0.00 | 0.00 | 92 | 1017.9 |
| 20260504032612 | 51 | 262 | 0.0 | 0.0 | 0.00 | 0.00 | 0.00 | 92 | 1018.0 |
| 20260504032109 | 51 | 262 | 0.0 | 0.0 | 0.00 | 0.00 | 0.00 | 91 | 1017.8 |
| 20260504031607 | 52 | 173 | 0.0 | 0.9 | 0.00 | 0.00 | 0.00 | 91 | 1017.8 |
| 20260504031102 | 52 | 246 | 0.0 | 0.9 | 0.00 | 0.00 | 0.00 | 90 | 1017.9 |
| 20260504030600 | 52 | 246 | 0.0 | 1.7 | 0.00 | 0.00 | 0.00 | 89 | 1017.7 |
| 20260504030056 | 52 | 270 | 0.0 | 0.0 | 0.00 | 0.00 | 0.00 | 88 | 1017.7 |
| 20260504025553 | 52 | 270 | 0.0 | 0.0 | 0.00 | 0.00 | 0.00 | 87 | 1017.8 |
| 20260504025050 | 52 | 270 | 0.0 | 0.0 | 0.00 | 0.00 | 0.00 | 86 | 1017.8 |
| 20260504024547 | 53 | 270 | 0.0 | 0.0 | 0.00 | 0.00 | 0.00 | 85 | 1017.6 |
| 20260504024044 | 53 | 270 | 0.0 | 0.0 | 0.00 | 0.00 | 0.00 | 85 | 1017.6 |
| 20260504023540 | 53 | 270 | 0.0 | 0.0 | 0.00 | 0.00 | 0.00 | 84 | 1017.4 |
| 20260504023036 | 53 | 270 | 0.0 | 0.0 | 0.00 | 0.00 | 0.00 | 84 | 1017.4 |
| 20260504022532 | 54 | 270 | 0.0 | 0.0 | 0.00 | 0.00 | 0.00 | 84 | 1017.4 |
| 20260504022029 | 54 | 270 | 0.0 | 0.0 | 0.00 | 0.00 | 0.00 | 83 | 1017.2 |
| 20260504021526 | 54 | 270 | 0.0 | 0.0 | 0.00 | 0.00 | 0.00 | 83 | 1017.3 |
| 20260504021023 | 55 | 270 | 0.0 | 0.0 | 0.00 | 0.00 | 0.00 | 83 | 1017.3 |
| 20260504020520 | 55 | 270 | 0.0 | 0.0 | 0.00 | 0.00 | 0.00 | 83 | 1017.3 |
| 20260504020017 | 55 | 254 | 0.0 | 0.9 | 0.00 | 0.00 | 0.00 | 82 | 1017.2 |
| 20260504015513 | 55 | 261 | 0.0 | 0.0 | 0.00 | 0.00 | 0.00 | 80 | 1017.0 |
| 20260504015009 | 55 | 270 | 0.0 | 0.0 | 0.00 | 0.00 | 0.00 | 79 | 1017.2 |
| 20260504014505 | 55 | 270 | 0.0 | 0.0 | 0.00 | 0.00 | 0.00 | 77 | 1016.8 |
| 20260504014003 | 56 | 270 | 0.0 | 0.0 | 0.00 | 0.00 | 0.00 | 75 | 1016.8 |
| 20260504013501 | 56 | 270 | 0.0 | 0.0 | 0.00 | 0.00 | 0.00 | 75 | 1017.0 |
| 20260504012956 | 56 | 270 | 0.0 | 0.0 | 0.00 | 0.00 | 0.00 | 72 | 1016.7 |
| 20260504012455 | 57 | 270 | 0.0 | 0.0 | 0.00 | 0.00 | 0.00 | 71 | 1016.8 |
| 20260504011952 | 57 | 270 | 0.0 | 0.0 | 0.00 | 0.00 | 0.00 | 72 | 1016.9 |
| 20260504011448 | 57 | 270 | 0.0 | 0.0 | 0.00 | 0.00 | 0.00 | 70 | 1017.0 |
| 20260504010944 | 58 | 270 | 0.0 | 0.0 | 0.00 | 0.00 | 0.00 | 69 | 1016.6 |
| 20260504010440 | 58 | 261 | 0.0 | 0.0 | 0.00 | 0.00 | 0.00 | 70 | 1016.8 |
| 20260504005936 | 58 | 243 | 0.0 | 0.9 | 0.00 | 0.00 | 0.00 | 68 | 1016.8 |
| 20260504005433 | 59 | 270 | 0.0 | 0.0 | 0.00 | 0.00 | 0.00 | 67 | 1016.8 |
| 20260504004931 | 59 | 270 | 0.0 | 0.0 | 0.00 | 0.00 | 0.00 | 68 | 1016.5 |
| 20260504004429 | 60 | 270 | 0.0 | 0.0 | 0.00 | 0.00 | 0.00 | 65 | 1016.5 |
| 20260504003925 | 60 | 261 | 0.0 | 0.0 | 0.00 | 0.00 | 0.00 | 64 | 1016.4 |
| 20260504003422 | 60 | 261 | 0.0 | 0.0 | 0.00 | 0.00 | 0.00 | 63 | 1016.3 |
| 20260504002918 | 61 | 261 | 0.0 | 0.0 | 0.00 | 0.00 | 0.00 | 64 | 1016.4 |
| 20260504002415 | 62 | 261 | 0.0 | 0.0 | 0.00 | 0.00 | 0.00 | 63 | 1016.3 |
| 20260504001913 | 62 | 261 | 0.0 | 0.0 | 0.00 | 0.00 | 0.00 | 61 | 1016.2 |
| 20260504001410 | 63 | 180 | 0.0 | 0.0 | 0.00 | 0.00 | 0.00 | 59 | 1016.3 |
| 20260504000906 | 64 | 180 | 0.0 | 0.0 | 0.00 | 0.00 | 0.00 | 56 | 1016.3 |
| 20260504000404 | 64 | 180 | 0.0 | 0.9 | 0.00 | 0.00 | 0.00 | 56 | 1015.9 |
| 20260503235901 | 65 | 194 | 0.9 | 0.9 | 0.00 | 0.00 | 0.00 | 54 | 1016.1 |
| 20260503235359 | 66 | 90 | 0.0 | 0.0 | 0.00 | 0.00 | 0.00 | 51 | 1016.1 |
| 20260503234856 | 67 | 187 | 0.0 | 0.0 | 0.00 | 0.00 | 0.00 | 49 | 1016.0 |
| 20260503234354 | 67 | 246 | 0.0 | 0.9 | 0.00 | 0.00 | 0.00 | 47 | 1016.2 |
| 20260503233851 | 68 | 240 | 0.0 | 0.0 | 0.00 | 0.00 | 0.00 | 48 | 1016.1 |
| 20260503233348 | 68 | 35 | 0.0 | 1.7 | 0.00 | 0.00 | 0.00 | 46 | 1016.0 |
| 20260503232844 | 68 | 247 | 0.0 | 1.7 | 0.00 | 0.00 | 0.00 | 48 | 1016.0 |
| 20260503232341 | 68 | 18 | 0.0 | 0.9 | 0.00 | 0.00 | 0.00 | 47 | 1016.2 |
| 20260503231839 | 68 | 215 | 0.0 | 0.0 | 0.00 | 0.00 | 0.00 | 48 | 1016.2 |
| 20260503231336 | 69 | 215 | 0.0 | 1.7 | 0.00 | 0.00 | 0.00 | 43 | 1016.3 |
| 20260503230832 | 69 | 209 | 0.0 | 0.0 | 0.00 | 0.00 | 0.00 | 43 | 1016.2 |
| 20260503230329 | 69 | 270 | 0.0 | 0.9 | 0.00 | 0.00 | 0.00 | 44 | 1016.6 |
| 20260503225827 | 69 | 216 | 1.7 | 1.7 | 0.00 | 0.00 | 0.00 | 43 | 1016.3 |
| 20260503225322 | 70 | 304 | 1.7 | 1.7 | 0.00 | 0.00 | 0.00 | 41 | 1016.4 |
| 20260503224819 | 70 | 342 | 2.6 | 2.6 | 0.00 | 0.00 | 0.00 | 42 | 1016.4 |
| 20260503224316 | 70 | 40 | 0.0 | 2.6 | 0.00 | 0.00 | 0.00 | 42 | 1016.3 |
| 20260503223814 | 70 | 195 | 1.7 | 2.6 | 0.00 | 0.00 | 0.00 | 43 | 1016.3 |
| 20260503223311 | 71 | 225 | 0.0 | 2.6 | 0.00 | 0.00 | 0.00 | 41 | 1016.4 |
| 20260503222807 | 71 | 243 | 0.0 | 2.6 | 0.00 | 0.00 | 0.00 | 45 | 1016.4 |
| 20260503222306 | 71 | 90 | 0.0 | 0.9 | 0.00 | 0.00 | 0.00 | 41 | 1016.3 |
| 20260503221803 | 72 | 59 | 0.0 | 3.5 | 0.00 | 0.00 | 0.00 | 41 | 1016.4 |
| 20260503221301 | 72 | 75 | 0.0 | 1.7 | 0.00 | 0.00 | 0.00 | 39 | 1016.5 |
| 20260503220757 | 72 | 90 | 0.0 | 2.6 | 0.00 | 0.00 | 0.00 | 42 | 1016.4 |
| 20260503220254 | 71 | 348 | 1.7 | 4.3 | 0.00 | 0.00 | 0.00 | 40 | 1016.5 |